sensor_id;sensor_type;location;lat;lon;timestamp;P1;durP1;ratioP1;P2;durP2;ratioP2
47289;SDS011;33197;52.524;13.444;2023-02-04T00:00:31;3.33;;;1.40;;
47289;SDS011;33197;52.524;13.444;2023-02-04T00:03:03;2.38;;;1.42;;
47289;SDS011;33197;52.524;13.444;2023-02-04T00:05:31;2.83;;;1.30;;
47289;SDS011;33197;52.524;13.444;2023-02-04T00:07:59;3.00;;;1.25;;
47289;SDS011;33197;52.524;13.444;2023-02-04T00:10:27;3.50;;;1.25;;
47289;SDS011;33197;52.524;13.444;2023-02-04T00:12:55;2.67;;;1.38;;
47289;SDS011;33197;52.524;13.444;2023-02-04T00:15:23;2.60;;;1.60;;
47289;SDS011;33197;52.524;13.444;2023-02-04T00:17:51;4.75;;;1.67;;
47289;SDS011;33197;52.524;13.444;2023-02-04T00:20:19;3.00;;;1.42;;
47289;SDS011;33197;52.524;13.444;2023-02-04T00:22:46;3.13;;;1.88;;
47289;SDS011;33197;52.524;13.444;2023-02-04T00:25:14;2.78;;;1.60;;
47289;SDS011;33197;52.524;13.444;2023-02-04T00:27:45;3.40;;;1.73;;
47289;SDS011;33197;52.524;13.444;2023-02-04T00:30:13;3.63;;;1.90;;
47289;SDS011;33197;52.524;13.444;2023-02-04T00:32:40;3.63;;;1.75;;
47289;SDS011;33197;52.524;13.444;2023-02-04T00:35:08;4.40;;;1.65;;
47289;SDS011;33197;52.524;13.444;2023-02-04T00:37:36;2.83;;;1.25;;
47289;SDS011;33197;52.524;13.444;2023-02-04T00:40:03;2.10;;;1.38;;
47289;SDS011;33197;52.524;13.444;2023-02-04T00:42:34;1.92;;;1.15;;
47289;SDS011;33197;52.524;13.444;2023-02-04T00:45:02;1.92;;;0.93;;
47289;SDS011;33197;52.524;13.444;2023-02-04T00:47:29;4.13;;;1.20;;
47289;SDS011;33197;52.524;13.444;2023-02-04T00:49:57;2.72;;;1.08;;
47289;SDS011;33197;52.524;13.444;2023-02-04T00:52:25;1.10;;;0.98;;
47289;SDS011;33197;52.524;13.444;2023-02-04T00:54:52;2.42;;;1.10;;
47289;SDS011;33197;52.524;13.444;2023-02-04T00:57:20;2.15;;;0.80;;
47289;SDS011;33197;52.524;13.444;2023-02-04T00:59:47;6.72;;;1.48;;
47289;SDS011;33197;52.524;13.444;2023-02-04T01:02:15;2.42;;;1.15;;
47289;SDS011;33197;52.524;13.444;2023-02-04T01:04:44;3.17;;;1.35;;
47289;SDS011;33197;52.524;13.444;2023-02-04T01:07:12;2.75;;;1.05;;
47289;SDS011;33197;52.524;13.444;2023-02-04T01:09:40;2.78;;;1.20;;
47289;SDS011;33197;52.524;13.444;2023-02-04T01:12:07;3.35;;;1.20;;
47289;SDS011;33197;52.524;13.444;2023-02-04T01:14:35;2.45;;;1.50;;
47289;SDS011;33197;52.524;13.444;2023-02-04T01:17:03;3.38;;;1.40;;
47289;SDS011;33197;52.524;13.444;2023-02-04T01:19:30;2.65;;;0.90;;
47289;SDS011;33197;52.524;13.444;2023-02-04T01:21:58;3.00;;;1.30;;
47289;SDS011;33197;52.524;13.444;2023-02-04T01:24:26;2.35;;;1.10;;
47289;SDS011;33197;52.524;13.444;2023-02-04T01:26:53;2.35;;;1.30;;
47289;SDS011;33197;52.524;13.444;2023-02-04T01:29:21;5.53;;;1.20;;
47289;SDS011;33197;52.524;13.444;2023-02-04T01:31:49;3.30;;;1.13;;
47289;SDS011;33197;52.524;13.444;2023-02-04T01:34:16;1.92;;;1.10;;
47289;SDS011;33197;52.524;13.444;2023-02-04T01:36:44;3.58;;;1.40;;
47289;SDS011;33197;52.524;13.444;2023-02-04T01:39:12;4.07;;;1.40;;
47289;SDS011;33197;52.524;13.444;2023-02-04T01:41:40;2.97;;;1.40;;
47289;SDS011;33197;52.524;13.444;2023-02-04T01:44:07;1.80;;;1.10;;
47289;SDS011;33197;52.524;13.444;2023-02-04T01:46:35;3.08;;;1.13;;
47289;SDS011;33197;52.524;13.444;2023-02-04T01:49:04;6.70;;;1.40;;
47289;SDS011;33197;52.524;13.444;2023-02-04T01:51:33;2.90;;;1.15;;
47289;SDS011;33197;52.524;13.444;2023-02-04T01:54:01;3.88;;;1.20;;
47289;SDS011;33197;52.524;13.444;2023-02-04T01:56:29;2.28;;;1.25;;
47289;SDS011;33197;52.524;13.444;2023-02-04T01:58:57;3.65;;;1.38;;
47289;SDS011;33197;52.524;13.444;2023-02-04T02:01:32;3.90;;;1.40;;
47289;SDS011;33197;52.524;13.444;2023-02-04T02:04:02;3.97;;;1.38;;
47289;SDS011;33197;52.524;13.444;2023-02-04T02:06:30;4.20;;;1.83;;
47289;SDS011;33197;52.524;13.444;2023-02-04T02:08:58;3.95;;;1.20;;
47289;SDS011;33197;52.524;13.444;2023-02-04T02:11:26;3.83;;;1.40;;
47289;SDS011;33197;52.524;13.444;2023-02-04T02:13:54;3.65;;;1.52;;
47289;SDS011;33197;52.524;13.444;2023-02-04T02:16:21;2.90;;;1.48;;
47289;SDS011;33197;52.524;13.444;2023-02-04T02:18:49;2.22;;;0.90;;
47289;SDS011;33197;52.524;13.444;2023-02-04T02:21:29;3.90;;;1.17;;
47289;SDS011;33197;52.524;13.444;2023-02-04T02:24:26;2.25;;;0.98;;
47289;SDS011;33197;52.524;13.444;2023-02-04T02:26:55;3.78;;;1.08;;
47289;SDS011;33197;52.524;13.444;2023-02-04T02:29:24;2.88;;;1.08;;
47289;SDS011;33197;52.524;13.444;2023-02-04T02:31:53;3.17;;;1.20;;
47289;SDS011;33197;52.524;13.444;2023-02-04T02:34:23;4.20;;;1.50;;
47289;SDS011;33197;52.524;13.444;2023-02-04T02:36:52;1.30;;;0.90;;
47289;SDS011;33197;52.524;13.444;2023-02-04T02:39:19;3.45;;;1.02;;
47289;SDS011;33197;52.524;13.444;2023-02-04T02:41:48;4.75;;;1.15;;
47289;SDS011;33197;52.524;13.444;2023-02-04T02:44:15;3.22;;;0.90;;
47289;SDS011;33197;52.524;13.444;2023-02-04T02:46:43;2.25;;;1.20;;
47289;SDS011;33197;52.524;13.444;2023-02-04T02:49:12;3.47;;;0.98;;
47289;SDS011;33197;52.524;13.444;2023-02-04T02:51:42;3.90;;;1.17;;
47289;SDS011;33197;52.524;13.444;2023-02-04T02:54:13;3.45;;;1.02;;
47289;SDS011;33197;52.524;13.444;2023-02-04T02:56:46;3.90;;;1.30;;
47289;SDS011;33197;52.524;13.444;2023-02-04T02:59:15;1.35;;;0.90;;
47289;SDS011;33197;52.524;13.444;2023-02-04T03:01:44;3.08;;;1.17;;
47289;SDS011;33197;52.524;13.444;2023-02-04T03:08:35;5.10;;;1.15;;
47289;SDS011;33197;52.524;13.444;2023-02-04T03:11:03;4.47;;;1.30;;
47289;SDS011;33197;52.524;13.444;2023-02-04T03:13:31;4.45;;;1.20;;
47289;SDS011;33197;52.524;13.444;2023-02-04T03:16:00;4.25;;;1.25;;
47289;SDS011;33197;52.524;13.444;2023-02-04T03:18:28;5.18;;;1.35;;
47289;SDS011;33197;52.524;13.444;2023-02-04T03:20:57;3.05;;;1.10;;
47289;SDS011;33197;52.524;13.444;2023-02-04T03:23:25;3.78;;;1.10;;
47289;SDS011;33197;52.524;13.444;2023-02-04T03:25:53;5.22;;;1.30;;
47289;SDS011;33197;52.524;13.444;2023-02-04T03:28:21;2.08;;;1.15;;
47289;SDS011;33197;52.524;13.444;2023-02-04T03:30:48;2.63;;;1.00;;
47289;SDS011;33197;52.524;13.444;2023-02-04T03:33:23;2.65;;;1.00;;
47289;SDS011;33197;52.524;13.444;2023-02-04T03:35:52;3.20;;;1.50;;
47289;SDS011;33197;52.524;13.444;2023-02-04T03:38:20;2.88;;;1.15;;
47289;SDS011;33197;52.524;13.444;2023-02-04T03:40:47;3.72;;;1.20;;
47289;SDS011;33197;52.524;13.444;2023-02-04T03:43:15;4.13;;;1.30;;
47289;SDS011;33197;52.524;13.444;2023-02-04T03:45:43;2.42;;;0.93;;
47289;SDS011;33197;52.524;13.444;2023-02-04T03:48:12;2.67;;;1.02;;
47289;SDS011;33197;52.524;13.444;2023-02-04T03:50:39;2.58;;;1.10;;
47289;SDS011;33197;52.524;13.444;2023-02-04T03:53:07;1.95;;;0.85;;
47289;SDS011;33197;52.524;13.444;2023-02-04T03:55:35;2.17;;;0.77;;
47289;SDS011;33197;52.524;13.444;2023-02-04T03:58:03;3.83;;;0.93;;
47289;SDS011;33197;52.524;13.444;2023-02-04T04:00:31;4.30;;;1.08;;
47289;SDS011;33197;52.524;13.444;2023-02-04T04:02:59;3.35;;;0.98;;
47289;SDS011;33197;52.524;13.444;2023-02-04T04:05:26;3.53;;;1.00;;
47289;SDS011;33197;52.524;13.444;2023-02-04T04:07:54;1.83;;;0.88;;
47289;SDS011;33197;52.524;13.444;2023-02-04T04:10:22;2.92;;;1.20;;
47289;SDS011;33197;52.524;13.444;2023-02-04T04:12:50;4.03;;;1.00;;
47289;SDS011;33197;52.524;13.444;2023-02-04T04:15:17;5.13;;;1.10;;
47289;SDS011;33197;52.524;13.444;2023-02-04T04:17:45;1.52;;;0.80;;
47289;SDS011;33197;52.524;13.444;2023-02-04T04:20:12;2.78;;;1.00;;
47289;SDS011;33197;52.524;13.444;2023-02-04T04:22:40;4.30;;;1.00;;
47289;SDS011;33197;52.524;13.444;2023-02-04T04:25:08;4.78;;;1.23;;
47289;SDS011;33197;52.524;13.444;2023-02-04T04:27:35;6.47;;;1.20;;
47289;SDS011;33197;52.524;13.444;2023-02-04T04:30:03;3.88;;;1.13;;
47289;SDS011;33197;52.524;13.444;2023-02-04T04:32:31;4.57;;;1.20;;
47289;SDS011;33197;52.524;13.444;2023-02-04T04:34:59;3.63;;;1.10;;
47289;SDS011;33197;52.524;13.444;2023-02-04T04:37:26;7.50;;;1.33;;
47289;SDS011;33197;52.524;13.444;2023-02-04T04:39:54;3.47;;;1.15;;
47289;SDS011;33197;52.524;13.444;2023-02-04T04:42:22;3.03;;;1.10;;
47289;SDS011;33197;52.524;13.444;2023-02-04T04:44:51;3.85;;;1.20;;
47289;SDS011;33197;52.524;13.444;2023-02-04T04:47:19;3.95;;;0.85;;
47289;SDS011;33197;52.524;13.444;2023-02-04T04:49:46;4.85;;;1.20;;
47289;SDS011;33197;52.524;13.444;2023-02-04T04:52:14;3.45;;;1.00;;
47289;SDS011;33197;52.524;13.444;2023-02-04T04:54:42;6.35;;;1.15;;
47289;SDS011;33197;52.524;13.444;2023-02-04T04:57:10;4.00;;;1.17;;
47289;SDS011;33197;52.524;13.444;2023-02-04T04:59:37;3.63;;;0.75;;
47289;SDS011;33197;52.524;13.444;2023-02-04T05:02:10;6.88;;;1.48;;
47289;SDS011;33197;52.524;13.444;2023-02-04T05:04:37;4.72;;;1.15;;
47289;SDS011;33197;52.524;13.444;2023-02-04T05:07:05;3.22;;;1.40;;
47289;SDS011;33197;52.524;13.444;2023-02-04T05:09:33;3.88;;;1.10;;
47289;SDS011;33197;52.524;13.444;2023-02-04T05:12:01;3.60;;;1.23;;
47289;SDS011;33197;52.524;13.444;2023-02-04T05:14:28;4.53;;;1.00;;
47289;SDS011;33197;52.524;13.444;2023-02-04T05:16:56;4.63;;;1.60;;
47289;SDS011;33197;52.524;13.444;2023-02-04T05:19:24;4.68;;;1.20;;
47289;SDS011;33197;52.524;13.444;2023-02-04T05:21:51;3.05;;;1.02;;
47289;SDS011;33197;52.524;13.444;2023-02-04T05:24:19;6.88;;;1.38;;
47289;SDS011;33197;52.524;13.444;2023-02-04T05:26:47;3.90;;;1.30;;
47289;SDS011;33197;52.524;13.444;2023-02-04T05:29:15;4.85;;;1.27;;
47289;SDS011;33197;52.524;13.444;2023-02-04T05:31:45;3.97;;;1.08;;
47289;SDS011;33197;52.524;13.444;2023-02-04T05:34:12;6.95;;;1.77;;
47289;SDS011;33197;52.524;13.444;2023-02-04T05:36:40;4.03;;;1.38;;
47289;SDS011;33197;52.524;13.444;2023-02-04T05:39:08;3.67;;;1.17;;
47289;SDS011;33197;52.524;13.444;2023-02-04T05:41:36;1.92;;;0.88;;
47289;SDS011;33197;52.524;13.444;2023-02-04T05:44:03;2.03;;;0.90;;
47289;SDS011;33197;52.524;13.444;2023-02-04T05:46:31;4.65;;;1.52;;
47289;SDS011;33197;52.524;13.444;2023-02-04T05:48:59;5.78;;;1.50;;
47289;SDS011;33197;52.524;13.444;2023-02-04T05:51:27;9.98;;;1.20;;
47289;SDS011;33197;52.524;13.444;2023-02-04T05:53:54;2.40;;;1.27;;
47289;SDS011;33197;52.524;13.444;2023-02-04T05:56:22;4.22;;;1.48;;
47289;SDS011;33197;52.524;13.444;2023-02-04T05:58:51;3.97;;;1.13;;
47289;SDS011;33197;52.524;13.444;2023-02-04T06:01:19;4.15;;;1.30;;
47289;SDS011;33197;52.524;13.444;2023-02-04T06:03:46;4.78;;;1.35;;
47289;SDS011;33197;52.524;13.444;2023-02-04T06:06:14;3.10;;;1.13;;
47289;SDS011;33197;52.524;13.444;2023-02-04T06:08:41;4.45;;;1.13;;
47289;SDS011;33197;52.524;13.444;2023-02-04T06:11:09;3.80;;;1.25;;
47289;SDS011;33197;52.524;13.444;2023-02-04T06:13:37;4.90;;;1.20;;
47289;SDS011;33197;52.524;13.444;2023-02-04T06:16:05;10.35;;;1.60;;
47289;SDS011;33197;52.524;13.444;2023-02-04T06:18:33;3.72;;;1.13;;
47289;SDS011;33197;52.524;13.444;2023-02-04T06:21:00;5.00;;;1.70;;
47289;SDS011;33197;52.524;13.444;2023-02-04T06:23:30;3.85;;;1.27;;
47289;SDS011;33197;52.524;13.444;2023-02-04T06:26:00;4.45;;;1.70;;
47289;SDS011;33197;52.524;13.444;2023-02-04T06:28:29;5.90;;;1.08;;
47289;SDS011;33197;52.524;13.444;2023-02-04T06:30:56;4.00;;;1.58;;
47289;SDS011;33197;52.524;13.444;2023-02-04T06:33:24;6.60;;;1.75;;
47289;SDS011;33197;52.524;13.444;2023-02-04T06:35:52;3.35;;;1.42;;
47289;SDS011;33197;52.524;13.444;2023-02-04T06:38:19;3.20;;;1.60;;
47289;SDS011;33197;52.524;13.444;2023-02-04T06:40:48;3.42;;;1.55;;
47289;SDS011;33197;52.524;13.444;2023-02-04T06:43:19;5.88;;;1.27;;
47289;SDS011;33197;52.524;13.444;2023-02-04T06:45:48;6.18;;;1.77;;
47289;SDS011;33197;52.524;13.444;2023-02-04T06:48:17;3.17;;;0.98;;
47289;SDS011;33197;52.524;13.444;2023-02-04T06:50:44;5.70;;;1.45;;
47289;SDS011;33197;52.524;13.444;2023-02-04T06:53:12;3.00;;;1.40;;
47289;SDS011;33197;52.524;13.444;2023-02-04T06:55:40;5.32;;;1.50;;
47289;SDS011;33197;52.524;13.444;2023-02-04T06:58:08;7.85;;;1.55;;
47289;SDS011;33197;52.524;13.444;2023-02-04T07:00:36;6.05;;;1.30;;
47289;SDS011;33197;52.524;13.444;2023-02-04T07:03:07;5.65;;;1.42;;
47289;SDS011;33197;52.524;13.444;2023-02-04T07:05:34;5.55;;;1.35;;
47289;SDS011;33197;52.524;13.444;2023-02-04T07:08:04;5.53;;;1.40;;
47289;SDS011;33197;52.524;13.444;2023-02-04T07:10:32;4.72;;;1.50;;
47289;SDS011;33197;52.524;13.444;2023-02-04T07:13:00;2.17;;;1.20;;
47289;SDS011;33197;52.524;13.444;2023-02-04T07:15:28;6.75;;;1.90;;
47289;SDS011;33197;52.524;13.444;2023-02-04T07:17:57;5.15;;;1.30;;
47289;SDS011;33197;52.524;13.444;2023-02-04T07:20:26;4.82;;;1.25;;
47289;SDS011;33197;52.524;13.444;2023-02-04T07:22:55;6.28;;;1.58;;
47289;SDS011;33197;52.524;13.444;2023-02-04T07:25:23;8.52;;;1.80;;
47289;SDS011;33197;52.524;13.444;2023-02-04T07:27:51;4.15;;;1.02;;
47289;SDS011;33197;52.524;13.444;2023-02-04T07:30:19;3.67;;;1.20;;
47289;SDS011;33197;52.524;13.444;2023-02-04T07:32:50;3.20;;;1.50;;
47289;SDS011;33197;52.524;13.444;2023-02-04T07:35:18;4.90;;;1.02;;
47289;SDS011;33197;52.524;13.444;2023-02-04T07:37:53;4.15;;;1.52;;
47289;SDS011;33197;52.524;13.444;2023-02-04T07:40:21;5.07;;;1.55;;
47289;SDS011;33197;52.524;13.444;2023-02-04T07:42:48;3.78;;;1.40;;
47289;SDS011;33197;52.524;13.444;2023-02-04T07:45:16;3.88;;;1.25;;
47289;SDS011;33197;52.524;13.444;2023-02-04T07:47:43;3.92;;;1.52;;
47289;SDS011;33197;52.524;13.444;2023-02-04T07:50:11;2.60;;;1.38;;
47289;SDS011;33197;52.524;13.444;2023-02-04T07:52:39;1.98;;;1.27;;
47289;SDS011;33197;52.524;13.444;2023-02-04T07:55:07;7.63;;;1.60;;
47289;SDS011;33197;52.524;13.444;2023-02-04T07:57:35;5.38;;;1.73;;
47289;SDS011;33197;52.524;13.444;2023-02-04T08:00:03;6.03;;;1.92;;
47289;SDS011;33197;52.524;13.444;2023-02-04T08:02:32;3.88;;;1.52;;
47289;SDS011;33197;52.524;13.444;2023-02-04T08:05:00;3.22;;;1.50;;
47289;SDS011;33197;52.524;13.444;2023-02-04T08:07:28;6.95;;;2.25;;
47289;SDS011;33197;52.524;13.444;2023-02-04T08:09:55;4.93;;;1.80;;
47289;SDS011;33197;52.524;13.444;2023-02-04T08:12:23;6.70;;;1.98;;
47289;SDS011;33197;52.524;13.444;2023-02-04T08:14:51;5.03;;;1.65;;
47289;SDS011;33197;52.524;13.444;2023-02-04T08:17:19;6.25;;;1.70;;
47289;SDS011;33197;52.524;13.444;2023-02-04T08:19:47;6.65;;;2.28;;
47289;SDS011;33197;52.524;13.444;2023-02-04T08:22:15;7.28;;;1.70;;
47289;SDS011;33197;52.524;13.444;2023-02-04T08:24:43;5.13;;;1.50;;
47289;SDS011;33197;52.524;13.444;2023-02-04T08:27:11;3.92;;;1.48;;
47289;SDS011;33197;52.524;13.444;2023-02-04T08:29:38;4.10;;;1.30;;
47289;SDS011;33197;52.524;13.444;2023-02-04T08:32:06;4.97;;;1.73;;
47289;SDS011;33197;52.524;13.444;2023-02-04T08:34:36;4.55;;;1.73;;
47289;SDS011;33197;52.524;13.444;2023-02-04T08:37:03;4.70;;;1.50;;
47289;SDS011;33197;52.524;13.444;2023-02-04T08:39:31;7.45;;;1.52;;
47289;SDS011;33197;52.524;13.444;2023-02-04T08:41:59;8.05;;;1.60;;
47289;SDS011;33197;52.524;13.444;2023-02-04T08:44:26;2.25;;;1.30;;
47289;SDS011;33197;52.524;13.444;2023-02-04T08:46:54;5.75;;;1.73;;
47289;SDS011;33197;52.524;13.444;2023-02-04T08:49:22;5.45;;;1.42;;
47289;SDS011;33197;52.524;13.444;2023-02-04T08:51:53;3.53;;;1.20;;
47289;SDS011;33197;52.524;13.444;2023-02-04T08:54:21;4.40;;;1.52;;
47289;SDS011;33197;52.524;13.444;2023-02-04T08:56:48;4.07;;;1.50;;
47289;SDS011;33197;52.524;13.444;2023-02-04T08:59:16;7.47;;;1.95;;
47289;SDS011;33197;52.524;13.444;2023-02-04T09:01:44;6.50;;;1.75;;
47289;SDS011;33197;52.524;13.444;2023-02-04T09:04:17;5.90;;;1.63;;
47289;SDS011;33197;52.524;13.444;2023-02-04T09:06:45;7.72;;;1.85;;
47289;SDS011;33197;52.524;13.444;2023-02-04T09:09:13;5.30;;;1.55;;
47289;SDS011;33197;52.524;13.444;2023-02-04T09:11:41;5.18;;;1.20;;
47289;SDS011;33197;52.524;13.444;2023-02-04T09:14:11;10.88;;;1.50;;
47289;SDS011;33197;52.524;13.444;2023-02-04T09:16:39;3.13;;;1.40;;
47289;SDS011;33197;52.524;13.444;2023-02-04T09:19:07;5.53;;;1.60;;
47289;SDS011;33197;52.524;13.444;2023-02-04T09:21:39;4.82;;;1.17;;
47289;SDS011;33197;52.524;13.444;2023-02-04T09:24:09;7.07;;;1.63;;
47289;SDS011;33197;52.524;13.444;2023-02-04T09:26:37;6.18;;;1.75;;
47289;SDS011;33197;52.524;13.444;2023-02-04T09:29:04;3.92;;;1.60;;
47289;SDS011;33197;52.524;13.444;2023-02-04T09:31:32;5.60;;;1.45;;
47289;SDS011;33197;52.524;13.444;2023-02-04T09:34:00;4.32;;;1.67;;
47289;SDS011;33197;52.524;13.444;2023-02-04T09:36:27;4.70;;;1.55;;
47289;SDS011;33197;52.524;13.444;2023-02-04T09:38:56;5.65;;;1.77;;
47289;SDS011;33197;52.524;13.444;2023-02-04T09:41:24;2.47;;;0.90;;
47289;SDS011;33197;52.524;13.444;2023-02-04T09:43:51;5.03;;;1.42;;
47289;SDS011;33197;52.524;13.444;2023-02-04T09:46:23;3.55;;;1.17;;
47289;SDS011;33197;52.524;13.444;2023-02-04T09:48:54;5.38;;;1.65;;
47289;SDS011;33197;52.524;13.444;2023-02-04T09:51:27;6.50;;;1.30;;
47289;SDS011;33197;52.524;13.444;2023-02-04T09:54:01;4.03;;;1.48;;
47289;SDS011;33197;52.524;13.444;2023-02-04T09:56:35;2.42;;;1.20;;
47289;SDS011;33197;52.524;13.444;2023-02-04T09:59:05;6.63;;;1.48;;
47289;SDS011;33197;52.524;13.444;2023-02-04T10:01:40;4.25;;;0.93;;
47289;SDS011;33197;52.524;13.444;2023-02-04T10:04:09;5.70;;;1.60;;
47289;SDS011;33197;52.524;13.444;2023-02-04T10:06:39;6.25;;;1.75;;
47289;SDS011;33197;52.524;13.444;2023-02-04T10:09:10;8.40;;;2.42;;
47289;SDS011;33197;52.524;13.444;2023-02-04T10:11:39;6.22;;;1.40;;
47289;SDS011;33197;52.524;13.444;2023-02-04T10:14:11;6.90;;;1.52;;
47289;SDS011;33197;52.524;13.444;2023-02-04T10:16:41;4.88;;;1.55;;
47289;SDS011;33197;52.524;13.444;2023-02-04T10:19:13;5.40;;;1.45;;
47289;SDS011;33197;52.524;13.444;2023-02-04T10:21:46;4.97;;;1.60;;
47289;SDS011;33197;52.524;13.444;2023-02-04T10:24:15;2.63;;;1.15;;
47289;SDS011;33197;52.524;13.444;2023-02-04T10:26:45;3.58;;;1.25;;
47289;SDS011;33197;52.524;13.444;2023-02-04T10:29:17;2.65;;;1.42;;
47289;SDS011;33197;52.524;13.444;2023-02-04T10:31:47;4.10;;;1.85;;
47289;SDS011;33197;52.524;13.444;2023-02-04T10:36:51;5.43;;;1.55;;
47289;SDS011;33197;52.524;13.444;2023-02-04T10:39:21;1.73;;;1.00;;
47289;SDS011;33197;52.524;13.444;2023-02-04T10:41:57;4.70;;;1.13;;
47289;SDS011;33197;52.524;13.444;2023-02-04T10:44:27;3.10;;;1.05;;
47289;SDS011;33197;52.524;13.444;2023-02-04T10:47:04;2.90;;;1.02;;
47289;SDS011;33197;52.524;13.444;2023-02-04T10:49:33;5.70;;;1.33;;
47289;SDS011;33197;52.524;13.444;2023-02-04T10:52:01;3.05;;;1.02;;
47289;SDS011;33197;52.524;13.444;2023-02-04T10:54:33;3.08;;;1.52;;
47289;SDS011;33197;52.524;13.444;2023-02-04T10:59:44;2.42;;;0.88;;
47289;SDS011;33197;52.524;13.444;2023-02-04T11:02:24;2.70;;;0.85;;
47289;SDS011;33197;52.524;13.444;2023-02-04T11:09:11;5.00;;;1.02;;
47289;SDS011;33197;52.524;13.444;2023-02-04T11:11:46;2.58;;;1.23;;
47289;SDS011;33197;52.524;13.444;2023-02-04T11:14:26;3.05;;;1.17;;
47289;SDS011;33197;52.524;13.444;2023-02-04T11:16:55;4.03;;;0.95;;
47289;SDS011;33197;52.524;13.444;2023-02-04T11:19:33;2.72;;;0.90;;
47289;SDS011;33197;52.524;13.444;2023-02-04T11:22:05;2.20;;;1.00;;
47289;SDS011;33197;52.524;13.444;2023-02-04T11:24:34;4.63;;;1.60;;
47289;SDS011;33197;52.524;13.444;2023-02-04T11:27:19;4.18;;;1.00;;
47289;SDS011;33197;52.524;13.444;2023-02-04T11:29:51;1.92;;;0.80;;
47289;SDS011;33197;52.524;13.444;2023-02-04T11:32:32;2.72;;;0.70;;
47289;SDS011;33197;52.524;13.444;2023-02-04T11:35:21;2.53;;;0.95;;
47289;SDS011;33197;52.524;13.444;2023-02-04T11:37:51;2.78;;;0.88;;
47289;SDS011;33197;52.524;13.444;2023-02-04T11:40:25;2.05;;;0.90;;
47289;SDS011;33197;52.524;13.444;2023-02-04T11:43:12;3.20;;;0.75;;
47289;SDS011;33197;52.524;13.444;2023-02-04T11:45:41;5.57;;;1.35;;
47289;SDS011;33197;52.524;13.444;2023-02-04T11:48:13;3.00;;;0.95;;
47289;SDS011;33197;52.524;13.444;2023-02-04T11:50:53;3.13;;;0.88;;
47289;SDS011;33197;52.524;13.444;2023-02-04T11:53:31;2.78;;;0.90;;
47289;SDS011;33197;52.524;13.444;2023-02-04T11:55:59;2.15;;;0.70;;
47289;SDS011;33197;52.524;13.444;2023-02-04T11:58:30;1.92;;;0.73;;
47289;SDS011;33197;52.524;13.444;2023-02-04T12:00:58;1.80;;;0.60;;
47289;SDS011;33197;52.524;13.444;2023-02-04T12:03:30;4.53;;;1.45;;
47289;SDS011;33197;52.524;13.444;2023-02-04T12:06:02;2.65;;;1.08;;
47289;SDS011;33197;52.524;13.444;2023-02-04T12:08:32;1.58;;;0.63;;
47289;SDS011;33197;52.524;13.444;2023-02-04T12:11:02;4.35;;;0.73;;
47289;SDS011;33197;52.524;13.444;2023-02-04T12:13:47;1.30;;;0.70;;
47289;SDS011;33197;52.524;13.444;2023-02-04T12:16:16;0.80;;;0.50;;
47289;SDS011;33197;52.524;13.444;2023-02-04T12:18:44;6.28;;;0.80;;
47289;SDS011;33197;52.524;13.444;2023-02-04T12:21:11;2.00;;;0.70;;
47289;SDS011;33197;52.524;13.444;2023-02-04T12:23:40;1.58;;;0.50;;
47289;SDS011;33197;52.524;13.444;2023-02-04T12:26:08;4.78;;;0.88;;
47289;SDS011;33197;52.524;13.444;2023-02-04T12:28:37;1.88;;;0.90;;
47289;SDS011;33197;52.524;13.444;2023-02-04T12:31:04;1.75;;;0.82;;
47289;SDS011;33197;52.524;13.444;2023-02-04T12:33:32;3.85;;;0.90;;
47289;SDS011;33197;52.524;13.444;2023-02-04T12:35:59;2.92;;;1.00;;
47289;SDS011;33197;52.524;13.444;2023-02-04T12:38:27;0.93;;;0.60;;
47289;SDS011;33197;52.524;13.444;2023-02-04T12:40:55;2.42;;;0.77;;
47289;SDS011;33197;52.524;13.444;2023-02-04T12:43:23;1.45;;;0.80;;
47289;SDS011;33197;52.524;13.444;2023-02-04T12:45:54;2.53;;;1.00;;
47289;SDS011;33197;52.524;13.444;2023-02-04T12:48:21;1.95;;;0.80;;
47289;SDS011;33197;52.524;13.444;2023-02-04T12:50:49;2.72;;;0.73;;
47289;SDS011;33197;52.524;13.444;2023-02-04T12:53:17;1.27;;;0.63;;
47289;SDS011;33197;52.524;13.444;2023-02-04T12:55:44;4.00;;;1.13;;
47289;SDS011;33197;52.524;13.444;2023-02-04T12:58:12;4.00;;;0.80;;
47289;SDS011;33197;52.524;13.444;2023-02-04T13:00:40;1.85;;;0.95;;
47289;SDS011;33197;52.524;13.444;2023-02-04T13:03:08;2.08;;;0.60;;
47289;SDS011;33197;52.524;13.444;2023-02-04T13:05:36;1.13;;;0.55;;
47289;SDS011;33197;52.524;13.444;2023-02-04T13:08:04;3.38;;;0.55;;
47289;SDS011;33197;52.524;13.444;2023-02-04T13:10:32;2.90;;;0.80;;
47289;SDS011;33197;52.524;13.444;2023-02-04T13:12:59;2.63;;;0.75;;
47289;SDS011;33197;52.524;13.444;2023-02-04T13:15:30;2.55;;;0.65;;
47289;SDS011;33197;52.524;13.444;2023-02-04T13:17:58;2.92;;;0.70;;
47289;SDS011;33197;52.524;13.444;2023-02-04T13:20:26;2.83;;;1.10;;
47289;SDS011;33197;52.524;13.444;2023-02-04T13:22:53;2.05;;;0.75;;
47289;SDS011;33197;52.524;13.444;2023-02-04T13:25:21;2.22;;;0.82;;
47289;SDS011;33197;52.524;13.444;2023-02-04T13:27:49;3.40;;;0.88;;
47289;SDS011;33197;52.524;13.444;2023-02-04T13:30:17;3.60;;;0.85;;
47289;SDS011;33197;52.524;13.444;2023-02-04T13:32:44;3.22;;;0.88;;
47289;SDS011;33197;52.524;13.444;2023-02-04T13:35:12;3.78;;;0.70;;
47289;SDS011;33197;52.524;13.444;2023-02-04T13:37:40;3.10;;;0.80;;
47289;SDS011;33197;52.524;13.444;2023-02-04T13:40:09;3.10;;;1.30;;
47289;SDS011;33197;52.524;13.444;2023-02-04T13:42:38;2.08;;;0.80;;
47289;SDS011;33197;52.524;13.444;2023-02-04T13:45:06;1.90;;;0.90;;
47289;SDS011;33197;52.524;13.444;2023-02-04T13:47:38;3.92;;;0.85;;
47289;SDS011;33197;52.524;13.444;2023-02-04T13:50:06;2.03;;;0.80;;
47289;SDS011;33197;52.524;13.444;2023-02-04T13:52:34;1.98;;;0.90;;
47289;SDS011;33197;52.524;13.444;2023-02-04T13:55:01;1.83;;;0.90;;
47289;SDS011;33197;52.524;13.444;2023-02-04T13:57:29;1.92;;;0.60;;
47289;SDS011;33197;52.524;13.444;2023-02-04T13:59:58;1.60;;;0.70;;
47289;SDS011;33197;52.524;13.444;2023-02-04T14:02:26;1.70;;;0.70;;
47289;SDS011;33197;52.524;13.444;2023-02-04T14:04:54;2.60;;;0.52;;
47289;SDS011;33197;52.524;13.444;2023-02-04T14:07:24;2.22;;;0.70;;
47289;SDS011;33197;52.524;13.444;2023-02-04T14:09:51;3.50;;;0.80;;
47289;SDS011;33197;52.524;13.444;2023-02-04T14:12:19;1.17;;;0.82;;
47289;SDS011;33197;52.524;13.444;2023-02-04T14:14:46;2.53;;;0.90;;
47289;SDS011;33197;52.524;13.444;2023-02-04T14:17:14;3.00;;;0.88;;
47289;SDS011;33197;52.524;13.444;2023-02-04T14:19:42;2.25;;;0.73;;
47289;SDS011;33197;52.524;13.444;2023-02-04T14:22:09;2.10;;;0.80;;
47289;SDS011;33197;52.524;13.444;2023-02-04T14:24:39;3.20;;;0.60;;
47289;SDS011;33197;52.524;13.444;2023-02-04T14:27:09;2.17;;;0.77;;
47289;SDS011;33197;52.524;13.444;2023-02-04T14:29:36;1.38;;;0.63;;
47289;SDS011;33197;52.524;13.444;2023-02-04T14:32:04;2.88;;;0.88;;
47289;SDS011;33197;52.524;13.444;2023-02-04T14:34:32;2.25;;;0.98;;
47289;SDS011;33197;52.524;13.444;2023-02-04T14:36:59;0.98;;;0.52;;
47289;SDS011;33197;52.524;13.444;2023-02-04T14:39:27;2.20;;;0.80;;
47289;SDS011;33197;52.524;13.444;2023-02-04T14:41:55;1.17;;;0.50;;
47289;SDS011;33197;52.524;13.444;2023-02-04T14:44:22;0.88;;;0.65;;
47289;SDS011;33197;52.524;13.444;2023-02-04T14:46:50;2.40;;;1.10;;
47289;SDS011;33197;52.524;13.444;2023-02-04T14:49:17;1.27;;;0.63;;
47289;SDS011;33197;52.524;13.444;2023-02-04T14:51:45;1.00;;;0.65;;
47289;SDS011;33197;52.524;13.444;2023-02-04T14:54:14;1.15;;;0.70;;
47289;SDS011;33197;52.524;13.444;2023-02-04T14:56:42;1.50;;;0.70;;